Time,TemperatureF,DewpointF,PressureIn,WindDirection,WindDirectionDegrees,WindSpeedMPH,WindSpeedGustMPH,Humidity,HourlyPrecipIn,Conditions,Clouds,dailyrainin,SoftwareType,DateUTC
2017-08-16 00:04:00,69.4,67.0,29.89,SE,130,0.0,0.0,92,0.00,,---,0.00,VWS V14.00,2017-08-16 04:04:00,
2017-08-16 00:09:00,69.3,66.9,29.89,SE,130,0.0,0.0,92,0.00,,---,0.00,VWS V14.00,2017-08-16 04:09:00,
2017-08-16 00:14:00,69.2,66.8,29.89,SE,130,0.0,0.0,92,0.00,,---,0.00,VWS V14.00,2017-08-16 04:14:00,
2017-08-16 00:19:00,69.1,66.7,29.89,SE,130,0.0,0.0,92,0.00,,---,0.00,VWS V14.00,2017-08-16 04:19:00,
2017-08-16 00:20:00,69.1,66.7,29.89,SE,130,0.0,0.0,92,0.00,,---,0.00,VWS V14.00,2017-08-16 04:20:00,
2017-08-16 00:25:00,69.1,66.7,29.89,SE,130,0.0,0.0,92,0.00,,---,0.00,VWS V14.00,2017-08-16 04:25:00,
2017-08-16 00:30:00,68.9,66.5,29.89,SE,130,0.0,0.0,92,0.00,,---,0.00,VWS V14.00,2017-08-16 04:30:00,
2017-08-16 00:35:00,68.8,66.4,29.90,SE,130,0.0,0.0,92,0.00,,---,0.00,VWS V14.00,2017-08-16 04:35:00,
2017-08-16 00:40:00,68.6,66.2,29.90,SE,130,0.0,0.0,92,0.00,,---,0.00,VWS V14.00,2017-08-16 04:40:00,
2017-08-16 00:45:00,68.5,66.1,29.90,SE,130,0.0,0.0,92,0.00,,---,0.00,VWS V14.00,2017-08-16 04:45:00,
2017-08-16 00:50:00,68.3,65.9,29.90,SE,130,0.0,0.0,92,0.00,,---,0.00,VWS V14.00,2017-08-16 04:50:00,
2017-08-16 00:55:00,68.2,65.8,29.89,SE,130,0.0,0.0,92,0.00,,---,0.00,VWS V14.00,2017-08-16 04:55:00,
2017-08-16 01:00:00,68.1,65.7,29.89,SE,130,0.0,0.0,92,0.00,,---,0.00,VWS V14.00,2017-08-16 05:00:00,
2017-08-16 01:05:00,68.1,65.7,29.89,SE,130,0.0,0.0,92,0.00,,---,0.00,VWS V14.00,2017-08-16 05:05:00,
2017-08-16 01:10:00,68.0,65.6,29.89,SE,130,0.0,0.0,92,0.00,,---,0.00,VWS V14.00,2017-08-16 05:10:00,
2017-08-16 01:15:00,68.1,65.7,29.89,SE,130,0.0,0.0,92,0.00,,---,0.00,VWS V14.00,2017-08-16 05:15:00,
2017-08-16 01:20:00,67.9,65.5,29.89,SE,130,0.0,0.0,92,0.00,,---,0.00,VWS V14.00,2017-08-16 05:20:00,
2017-08-16 01:25:00,67.8,65.4,29.89,SE,130,0.0,0.0,92,0.00,,---,0.00,VWS V14.00,2017-08-16 05:25:00,
2017-08-16 01:30:00,67.8,65.4,29.89,SE,130,0.0,0.0,92,0.00,,---,0.00,VWS V14.00,2017-08-16 05:30:00,
2017-08-16 01:35:00,67.7,65.3,29.89,SE,130,0.0,0.0,92,0.00,,---,0.00,VWS V14.00,2017-08-16 05:35:00,
2017-08-16 01:40:00,67.6,65.2,29.89,SE,130,0.0,0.0,92,0.00,,---,0.00,VWS V14.00,2017-08-16 05:40:00,
2017-08-16 01:45:00,67.6,65.2,29.89,SE,130,0.0,0.0,92,0.00,,---,0.00,VWS V14.00,2017-08-16 05:45:00,
2017-08-16 01:50:00,67.5,65.1,29.90,SE,130,0.0,0.0,92,0.00,,---,0.00,VWS V14.00,2017-08-16 05:50:00,
2017-08-16 01:55:00,67.4,65.3,29.90,SE,130,0.0,0.0,93,0.00,,---,0.00,VWS V14.00,2017-08-16 05:55:00,
2017-08-16 02:00:00,67.4,65.3,29.89,SE,130,0.0,0.0,93,0.00,,---,0.00,VWS V14.00,2017-08-16 06:00:00,
2017-08-16 02:05:00,67.4,65.3,29.89,SE,130,0.0,0.0,93,0.00,,---,0.00,VWS V14.00,2017-08-16 06:05:00,
2017-08-16 02:10:00,67.6,65.5,29.90,SE,130,0.0,0.0,93,0.00,,---,0.00,VWS V14.00,2017-08-16 06:10:00,
2017-08-16 02:15:00,67.7,65.6,29.90,SE,130,0.0,0.0,93,0.00,,---,0.00,VWS V14.00,2017-08-16 06:15:00,
2017-08-16 02:20:00,67.7,65.6,29.90,SE,130,0.0,0.0,93,0.00,,---,0.00,VWS V14.00,2017-08-16 06:20:00,
2017-08-16 02:25:00,67.8,65.7,29.90,SE,130,0.0,0.0,93,0.00,,---,0.00,VWS V14.00,2017-08-16 06:25:00,
2017-08-16 02:30:00,68.0,65.9,29.90,SE,130,0.0,0.0,93,0.00,,---,0.00,VWS V14.00,2017-08-16 06:30:00,
2017-08-16 02:35:00,68.3,66.5,29.90,SE,130,0.0,0.0,94,0.00,,---,0.00,VWS V14.00,2017-08-16 06:35:00,
2017-08-16 02:40:00,68.5,66.7,29.90,SE,130,0.0,0.0,94,0.00,,---,0.00,VWS V14.00,2017-08-16 06:40:00,
2017-08-16 02:45:00,68.6,66.8,29.90,SE,130,0.0,0.0,94,0.00,,---,0.00,VWS V14.00,2017-08-16 06:45:00,
2017-08-16 02:50:00,68.8,67.0,29.90,SE,130,0.0,0.0,94,0.00,,---,0.00,VWS V14.00,2017-08-16 06:50:00,
2017-08-16 02:55:00,69.1,67.3,29.90,SE,130,0.0,0.0,94,0.00,,---,0.00,VWS V14.00,2017-08-16 06:55:00,
2017-08-16 03:00:00,69.3,67.5,29.90,SE,130,0.0,0.0,94,0.00,,---,0.00,VWS V14.00,2017-08-16 07:00:00,
2017-08-16 03:05:00,69.5,67.7,29.90,SE,130,0.0,0.0,94,0.00,,---,0.00,VWS V14.00,2017-08-16 07:05:00,
2017-08-16 03:10:00,69.7,67.9,29.90,SE,130,0.0,0.0,94,0.00,,---,0.00,VWS V14.00,2017-08-16 07:10:00,
2017-08-16 03:15:00,69.8,68.0,29.90,SE,130,0.0,0.0,94,0.00,,---,0.00,VWS V14.00,2017-08-16 07:15:00,
2017-08-16 03:20:00,69.9,68.1,29.90,SE,130,0.0,0.0,94,0.00,,---,0.00,VWS V14.00,2017-08-16 07:20:00,
2017-08-16 03:26:00,70.0,68.2,29.90,SE,130,0.0,0.0,94,0.00,,---,0.00,VWS V14.00,2017-08-16 07:26:00,
2017-08-16 03:31:00,70.0,68.2,29.89,SE,130,0.0,0.0,94,0.00,,---,0.00,VWS V14.00,2017-08-16 07:31:00,
2017-08-16 03:36:00,70.0,68.2,29.89,SE,130,0.0,0.0,94,0.00,,---,0.00,VWS V14.00,2017-08-16 07:36:00,
2017-08-16 03:41:00,70.0,67.9,29.90,SE,130,0.0,0.0,93,0.00,,---,0.00,VWS V14.00,2017-08-16 07:41:00,
2017-08-16 03:46:00,69.9,67.8,29.90,SE,130,0.0,0.0,93,0.00,,---,0.00,VWS V14.00,2017-08-16 07:46:00,
2017-08-16 03:51:00,69.8,67.7,29.89,SE,130,0.0,0.0,93,0.00,,---,0.00,VWS V14.00,2017-08-16 07:51:00,
2017-08-16 03:56:00,69.8,67.7,29.90,SE,130,0.0,0.0,93,0.00,,---,0.00,VWS V14.00,2017-08-16 07:56:00,
2017-08-16 04:01:00,69.7,67.6,29.90,SE,130,0.0,0.0,93,0.00,,---,0.00,VWS V14.00,2017-08-16 08:01:00,
2017-08-16 04:06:00,69.7,67.9,29.90,SE,130,0.0,0.0,94,0.00,,---,0.00,VWS V14.00,2017-08-16 08:06:00,
2017-08-16 04:11:00,69.7,67.9,29.90,SE,130,0.0,0.0,94,0.00,,---,0.00,VWS V14.00,2017-08-16 08:11:00,
2017-08-16 04:16:00,69.7,67.9,29.90,SE,130,0.0,0.0,94,0.00,,---,0.00,VWS V14.00,2017-08-16 08:16:00,
2017-08-16 04:21:00,69.7,67.9,29.90,SE,130,0.0,0.0,94,0.00,,---,0.00,VWS V14.00,2017-08-16 08:21:00,
2017-08-16 04:26:00,69.8,68.0,29.90,SE,130,0.0,0.0,94,0.00,,---,0.00,VWS V14.00,2017-08-16 08:26:00,
2017-08-16 04:31:00,69.7,67.9,29.90,SE,130,0.0,0.0,94,0.00,,---,0.00,VWS V14.00,2017-08-16 08:31:00,
2017-08-16 04:36:00,69.7,67.9,29.91,SE,130,0.0,0.0,94,0.00,,---,0.00,VWS V14.00,2017-08-16 08:36:00,
2017-08-16 04:41:00,69.7,67.9,29.91,SE,130,0.0,0.0,94,0.00,,---,0.00,VWS V14.00,2017-08-16 08:41:00,
2017-08-16 04:46:00,69.7,67.9,29.91,SE,130,0.0,0.0,94,0.00,,---,0.00,VWS V14.00,2017-08-16 08:46:00,
2017-08-16 04:51:00,69.6,67.8,29.91,SE,130,0.0,0.0,94,0.00,,---,0.00,VWS V14.00,2017-08-16 08:51:00,
2017-08-16 04:56:00,69.6,67.8,29.91,SE,130,0.0,0.0,94,0.00,,---,0.00,VWS V14.00,2017-08-16 08:56:00,
2017-08-16 05:01:00,69.5,67.7,29.91,SE,130,0.0,0.0,94,0.00,,---,0.00,VWS V14.00,2017-08-16 09:01:00,
2017-08-16 05:07:00,69.5,67.4,29.91,SE,130,0.0,0.0,93,0.00,,---,0.00,VWS V14.00,2017-08-16 09:07:00,
2017-08-16 05:12:00,69.5,67.4,29.91,SE,130,0.0,0.0,93,0.00,,---,0.00,VWS V14.00,2017-08-16 09:12:00,
2017-08-16 05:17:00,69.4,67.3,29.91,SE,130,0.0,0.0,93,0.00,,---,0.00,VWS V14.00,2017-08-16 09:17:00,
2017-08-16 05:22:00,69.4,67.3,29.92,SE,130,0.0,0.0,93,0.00,,---,0.00,VWS V14.00,2017-08-16 09:22:00,
2017-08-16 05:27:00,69.4,67.3,29.92,SE,130,0.0,0.0,93,0.00,,---,0.00,VWS V14.00,2017-08-16 09:27:00,
2017-08-16 05:32:00,69.4,67.3,29.92,SE,130,0.0,0.0,93,0.00,,---,0.00,VWS V14.00,2017-08-16 09:32:00,
2017-08-16 05:37:00,69.4,67.6,29.93,SE,130,0.0,0.0,94,0.00,,---,0.00,VWS V14.00,2017-08-16 09:37:00,
2017-08-16 05:42:00,69.4,67.6,29.93,SE,130,0.0,0.0,94,0.00,,---,0.00,VWS V14.00,2017-08-16 09:42:00,
2017-08-16 05:47:00,69.4,67.6,29.93,SE,130,0.0,0.0,94,0.00,,---,0.00,VWS V14.00,2017-08-16 09:47:00,
2017-08-16 05:52:00,69.4,67.3,29.93,SE,130,0.0,0.0,93,0.00,,---,0.00,VWS V14.00,2017-08-16 09:52:00,
2017-08-16 05:57:00,69.3,67.2,29.93,SE,130,0.0,0.0,93,0.00,,---,0.00,VWS V14.00,2017-08-16 09:57:00,
2017-08-16 06:02:00,69.2,67.1,29.93,SE,130,0.0,0.0,93,0.00,,---,0.00,VWS V14.00,2017-08-16 10:02:00,
2017-08-16 06:07:00,69.1,67.0,29.93,SE,130,0.0,0.0,93,0.00,,---,0.00,VWS V14.00,2017-08-16 10:07:00,
2017-08-16 06:12:00,69.0,66.9,29.93,SE,130,0.0,0.0,93,0.00,,---,0.00,VWS V14.00,2017-08-16 10:12:00,
2017-08-16 06:17:00,68.8,66.7,29.94,SE,130,0.0,0.0,93,0.00,,---,0.00,VWS V14.00,2017-08-16 10:17:00,
2017-08-16 06:22:00,68.5,66.4,29.94,SE,130,0.0,0.0,93,0.00,,---,0.00,VWS V14.00,2017-08-16 10:22:00,
2017-08-16 06:27:00,68.3,66.2,29.94,SE,130,0.0,0.0,93,0.00,,---,0.00,VWS V14.00,2017-08-16 10:27:00,
2017-08-16 06:32:00,68.1,66.0,29.94,SE,130,0.0,0.0,93,0.00,,---,0.00,VWS V14.00,2017-08-16 10:32:00,
2017-08-16 06:37:00,68.1,66.0,29.94,SE,130,0.0,0.0,93,0.00,,---,0.00,VWS V14.00,2017-08-16 10:37:00,
2017-08-16 06:42:00,68.0,65.9,29.94,SE,130,0.0,0.0,93,0.00,,---,0.00,VWS V14.00,2017-08-16 10:42:00,
2017-08-16 06:47:00,68.0,65.9,29.94,SE,130,0.0,0.0,93,0.00,,---,0.00,VWS V14.00,2017-08-16 10:47:00,
2017-08-16 06:52:00,68.0,65.9,29.94,SE,130,0.0,0.0,93,0.00,,---,0.00,VWS V14.00,2017-08-16 10:52:00,
2017-08-16 06:57:00,68.2,66.4,29.94,SE,130,0.0,0.0,94,0.00,,---,0.00,VWS V14.00,2017-08-16 10:57:00,
2017-08-16 07:02:00,68.3,66.5,29.94,SE,130,0.0,0.0,94,0.00,,---,0.00,VWS V14.00,2017-08-16 11:02:00,
2017-08-16 07:07:00,68.4,66.6,29.94,SE,130,0.0,0.0,94,0.00,,---,0.00,VWS V14.00,2017-08-16 11:07:00,
2017-08-16 07:12:00,68.4,66.6,29.94,SE,130,0.0,1.0,94,0.00,,---,0.00,VWS V14.00,2017-08-16 11:12:00,
2017-08-16 07:17:00,68.4,66.6,29.94,SE,130,0.0,1.0,94,0.00,,---,0.00,VWS V14.00,2017-08-16 11:17:00,
2017-08-16 07:22:00,68.5,66.7,29.94,SE,130,0.0,1.0,94,0.00,,---,0.00,VWS V14.00,2017-08-16 11:22:00,
2017-08-16 07:27:00,68.6,66.8,29.94,SE,130,0.0,1.0,94,0.00,,---,0.00,VWS V14.00,2017-08-16 11:27:00,
2017-08-16 07:32:00,68.6,66.5,29.94,SE,130,0.0,0.0,93,0.00,,---,0.00,VWS V14.00,2017-08-16 11:32:00,
2017-08-16 07:37:00,68.7,66.6,29.94,SE,130,0.0,0.0,93,0.00,,---,0.00,VWS V14.00,2017-08-16 11:37:00,
2017-08-16 07:42:00,68.9,66.8,29.94,SE,130,0.0,0.0,93,0.00,,---,0.00,VWS V14.00,2017-08-16 11:42:00,
2017-08-16 07:47:00,69.0,66.9,29.94,SE,130,0.0,0.0,93,0.00,,---,0.00,VWS V14.00,2017-08-16 11:47:00,
2017-08-16 07:52:00,69.1,67.0,29.94,SE,130,0.0,0.0,93,0.00,,---,0.00,VWS V14.00,2017-08-16 11:52:00,
2017-08-16 07:57:00,69.3,66.9,29.95,SE,130,0.0,0.0,92,0.00,,---,0.00,VWS V14.00,2017-08-16 11:57:00,
2017-08-16 08:02:00,69.4,67.0,29.95,SE,130,0.0,0.0,92,0.00,,---,0.00,VWS V14.00,2017-08-16 12:02:00,
2017-08-16 08:07:00,69.6,66.9,29.95,SE,130,0.0,0.0,91,0.00,,---,0.00,VWS V14.00,2017-08-16 12:07:00,
2017-08-16 08:12:00,69.9,67.2,29.95,SE,130,0.0,0.0,91,0.00,,---,0.00,VWS V14.00,2017-08-16 12:12:00,
2017-08-16 08:17:00,70.2,67.1,29.95,SE,130,0.0,0.0,90,0.00,,---,0.00,VWS V14.00,2017-08-16 12:17:00,
2017-08-16 08:22:00,70.6,67.2,29.95,SE,130,0.0,0.0,89,0.00,,---,0.00,VWS V14.00,2017-08-16 12:22:00,
2017-08-16 08:27:00,71.0,67.3,29.95,SE,130,0.0,0.0,88,0.00,,---,0.00,VWS V14.00,2017-08-16 12:27:00,
2017-08-16 08:32:00,71.3,67.2,29.95,SE,130,0.0,0.0,87,0.00,,---,0.00,VWS V14.00,2017-08-16 12:32:00,
2017-08-16 08:37:00,71.7,67.3,29.95,SE,130,0.0,0.0,86,0.00,,---,0.00,VWS V14.00,2017-08-16 12:37:00,
2017-08-16 08:42:00,72.1,67.3,29.95,SE,130,0.0,0.0,85,0.00,,---,0.00,VWS V14.00,2017-08-16 12:42:00,
2017-08-16 08:47:00,72.6,67.2,29.95,SE,129,0.0,0.0,83,0.00,,---,0.00,VWS V14.00,2017-08-16 12:47:00,
2017-08-16 08:52:00,73.2,67.7,29.95,ESE,116,0.0,2.0,83,0.00,,---,0.00,VWS V14.00,2017-08-16 12:52:00,
2017-08-16 08:57:00,73.8,66.9,29.94,ESE,105,0.0,7.0,79,0.00,,---,0.00,VWS V14.00,2017-08-16 12:57:00,
2017-08-16 09:02:00,74.1,66.4,29.95,ESE,102,0.0,6.0,77,0.00,,---,0.00,VWS V14.00,2017-08-16 13:02:00,
2017-08-16 09:07:00,74.4,66.3,29.94,ESE,102,0.0,6.0,76,0.00,,---,0.00,VWS V14.00,2017-08-16 13:07:00,
2017-08-16 09:12:00,74.8,66.7,29.95,East,94,1.0,6.0,76,0.00,,---,0.00,VWS V14.00,2017-08-16 13:12:00,
2017-08-16 09:17:00,75.1,65.9,29.95,East,94,0.0,6.0,73,0.00,,---,0.00,VWS V14.00,2017-08-16 13:17:00,
2017-08-16 09:22:00,75.5,66.6,29.95,East,92,0.0,6.0,74,0.00,,---,0.00,VWS V14.00,2017-08-16 13:22:00,
2017-08-16 09:27:00,75.9,67.0,29.95,East,92,0.0,6.0,74,0.00,,---,0.00,VWS V14.00,2017-08-16 13:27:00,
2017-08-16 09:32:00,76.2,66.9,29.95,East,92,0.0,4.0,73,0.00,,---,0.00,VWS V14.00,2017-08-16 13:32:00,
2017-08-16 09:37:00,76.7,67.8,29.95,East,92,4.0,4.0,74,0.00,,---,0.00,VWS V14.00,2017-08-16 13:37:00,
2017-08-16 09:43:00,76.6,66.1,29.95,East,92,2.0,5.0,70,0.00,,---,0.00,VWS V14.00,2017-08-16 13:43:00,
2017-08-16 09:48:00,76.7,66.2,29.95,East,92,0.0,5.0,70,0.00,,---,0.00,VWS V14.00,2017-08-16 13:48:00,
2017-08-16 09:53:00,77.0,66.9,29.95,East,92,0.0,5.0,71,0.00,,---,0.00,VWS V14.00,2017-08-16 13:53:00,
2017-08-16 09:58:00,77.2,66.2,29.95,East,92,0.0,5.0,69,0.00,,---,0.00,VWS V14.00,2017-08-16 13:58:00,
2017-08-16 10:03:00,77.5,66.9,29.95,East,92,0.0,0.0,70,0.00,,---,0.00,VWS V14.00,2017-08-16 14:03:00,
2017-08-16 10:08:00,77.7,67.6,29.95,East,92,0.0,0.0,71,0.00,,---,0.00,VWS V14.00,2017-08-16 14:08:00,
2017-08-16 10:13:00,78.1,67.9,29.95,East,92,1.0,2.0,71,0.00,,---,0.00,VWS V14.00,2017-08-16 14:13:00,